Time;durP1;ratioP1;P1;durP2;ratioP2;P2;SDS_P1;SDS_P2;PMS_P1;PMS_P2;Temp;Humidity;BMP_temperature;BMP_pressure;BME280_temperature;BME280_humidity;BME280_pressure;Samples;Min_cycle;Max_cycle;Signal;HPM_P1;HPM_P2
2023/03/25 00:01:01;;;;;;;0.40;0.37;;;9.60;99.90;;;;;;5013751;28;20463;-71
2023/03/25 00:03:30;;;;;;;0.43;0.43;;;9.50;99.90;;;;;;5027602;28;20516;-71
2023/03/25 00:05:56;;;;;;;3.33;0.67;;;9.50;99.90;;;;;;5029395;28;20538;-71
2023/03/25 00:08:24;;;;;;;0.93;0.40;;;9.40;99.90;;;;;;5047395;28;20458;-71
2023/03/25 00:10:54;;;;;;;0.40;0.33;;;9.40;99.90;;;;;;5045087;28;20469;-71
2023/03/25 00:13:21;;;;;;;0.70;0.50;;;9.50;99.90;;;;;;5047703;28;20450;-70
2023/03/25 00:15:47;;;;;;;0.40;0.40;;;9.50;99.90;;;;;;5016664;28;20482;-70
2023/03/25 00:18:16;;;;;;;0.50;0.40;;;9.50;99.90;;;;;;5045873;28;20860;-70
2023/03/25 00:20:44;;;;;;;0.40;0.30;;;9.40;99.90;;;;;;5030242;28;20492;-71
2023/03/25 00:23:11;;;;;;;1.63;0.50;;;9.20;99.90;;;;;;5015922;28;20446;-69
2023/03/25 00:25:37;;;;;;;2.90;0.60;;;9.10;99.90;;;;;;5035107;28;20452;-71
2023/03/25 00:28:03;;;;;;;0.83;0.60;;;9.10;99.90;;;;;;5028152;28;21005;-70
2023/03/25 00:30:29;;;;;;;0.70;0.50;;;9.00;99.90;;;;;;5022850;28;20214;-71
2023/03/25 00:32:56;;;;;;;0.50;0.47;;;9.10;99.90;;;;;;5012476;28;20250;-72
2023/03/25 00:35:22;;;;;;;0.87;0.50;;;9.00;99.90;;;;;;5011975;28;20226;-70
2023/03/25 00:37:58;;;;;;;1.77;0.83;;;9.10;99.90;;;;;;5035082;28;21011;-73
2023/03/25 00:40:34;;;;;;;0.70;0.40;;;9.00;99.90;;;;;;5019539;28;20450;-70
2023/03/25 00:43:01;;;;;;;0.83;0.77;;;9.10;99.90;;;;;;5014463;28;21061;-70
2023/03/25 00:45:27;;;;;;;1.73;0.57;;;8.90;99.90;;;;;;5007254;28;20471;-70
2023/03/25 00:47:53;;;;;;;0.40;0.40;;;9.00;99.90;;;;;;5024373;28;20458;-71
2023/03/25 00:50:20;;;;;;;0.67;0.50;;;9.00;99.90;;;;;;5028625;28;20893;-70
2023/03/25 00:52:46;;;;;;;0.93;0.60;;;9.00;99.90;;;;;;5047412;28;20222;-70
2023/03/25 00:55:12;;;;;;;0.53;0.50;;;9.00;99.90;;;;;;5011532;28;20512;-70
2023/03/25 00:57:38;;;;;;;2.27;0.60;;;8.90;99.90;;;;;;5009677;28;21034;-70
2023/03/25 01:00:06;;;;;;;1.73;0.50;;;8.90;99.90;;;;;;5053902;28;20223;-69
2023/03/25 01:02:32;;;;;;;1.23;0.50;;;8.90;99.90;;;;;;5017586;28;20374;-70
2023/03/25 01:04:59;;;;;;;2.43;0.93;;;8.90;99.90;;;;;;5035716;28;20459;-67
2023/03/25 01:07:24;;;;;;;1.60;0.60;;;8.90;99.90;;;;;;5034556;28;20536;-70
2023/03/25 01:09:50;;;;;;;1.10;0.60;;;8.90;99.90;;;;;;5035274;28;20488;-70
2023/03/25 01:12:17;;;;;;;3.63;0.90;;;8.80;99.90;;;;;;5038944;28;20212;-70
2023/03/25 01:14:43;;;;;;;0.80;0.70;;;8.90;99.90;;;;;;5032492;28;20221;-69
2023/03/25 01:17:09;;;;;;;1.27;0.60;;;9.20;99.90;;;;;;5019650;28;20855;-70
2023/03/25 01:19:35;;;;;;;1.77;0.80;;;9.20;99.90;;;;;;5030030;28;20219;-70
2023/03/25 01:22:01;;;;;;;3.83;1.20;;;9.30;99.90;;;;;;5024326;28;20465;-68
2023/03/25 01:24:26;;;;;;;1.27;0.80;;;9.20;99.90;;;;;;5030705;28;20216;-70
2023/03/25 01:26:52;;;;;;;2.70;0.70;;;9.40;99.90;;;;;;5031794;28;20295;-69
2023/03/25 01:29:19;;;;;;;1.17;0.97;;;9.50;99.90;;;;;;5039533;28;20307;-70
2023/03/25 01:31:45;;;;;;;2.60;1.07;;;9.60;99.90;;;;;;5032244;28;20242;-70
2023/03/25 01:34:11;;;;;;;1.03;0.70;;;9.40;99.90;;;;;;5035084;28;20996;-70
2023/03/25 01:36:38;;;;;;;3.37;0.77;;;9.50;99.90;;;;;;5052177;28;20571;-70
2023/03/25 01:39:06;;;;;;;0.70;0.70;;;9.50;99.90;;;;;;5032225;28;20454;-68
2023/03/25 01:41:33;;;;;;;5.80;1.00;;;9.60;99.90;;;;;;5015179;28;20533;-70
2023/03/25 01:44:22;;;;;;;1.30;0.80;;;9.70;99.90;;;;;;5031367;28;20499;-70
2023/03/25 01:46:51;;;;;;;1.83;1.03;;;9.40;99.90;;;;;;4986096;28;20454;-70
2023/03/25 01:49:22;;;;;;;2.03;1.20;;;9.40;99.90;;;;;;5009961;28;20469;-70
2023/03/25 01:51:52;;;;;;;6.60;1.20;;;9.30;99.90;;;;;;5024397;28;20459;-70
2023/03/25 01:54:18;;;;;;;1.20;1.10;;;9.20;99.90;;;;;;5028795;28;20817;-70
2023/03/25 01:56:46;;;;;;;1.27;0.93;;;9.30;99.90;;;;;;5019711;28;20442;-70
2023/03/25 01:59:17;;;;;;;2.30;0.93;;;9.40;99.90;;;;;;5031931;28;20553;-70
2023/03/25 02:01:47;;;;;;;2.93;0.83;;;9.50;99.90;;;;;;5038257;28;20470;-69
2023/03/25 02:04:21;;;;;;;1.27;0.90;;;9.50;99.90;;;;;;5043136;28;20434;-71
2023/03/25 02:06:53;;;;;;;1.07;0.80;;;9.40;99.90;;;;;;5030611;28;20447;-70
2023/03/25 02:09:22;;;;;;;1.93;1.17;;;9.40;99.90;;;;;;5023926;28;20439;-70
2023/03/25 02:11:49;;;;;;;0.60;0.60;;;9.40;99.90;;;;;;5034856;28;20454;-70
2023/03/25 02:14:22;;;;;;;0.80;0.80;;;9.40;99.90;;;;;;5021864;28;20444;-70
2023/03/25 02:16:55;;;;;;;0.70;0.70;;;9.40;99.90;;;;;;5034831;28;21029;-70
2023/03/25 02:20:08;;;;;;;0.97;0.73;;;9.30;99.90;;;;;;5026333;28;20508;-71
2023/03/25 02:23:00;;;;;;;1.33;0.60;;;9.10;99.90;;;;;;5022989;28;20443;-70
2023/03/25 02:25:54;;;;;;;2.93;0.60;;;9.10;99.90;;;;;;5021566;28;20514;-70
2023/03/25 02:28:28;;;;;;;0.73;0.73;;;9.00;99.90;;;;;;5029366;28;20964;-70
2023/03/25 02:31:31;;;;;;;0.70;0.60;;;9.00;99.90;;;;;;5034656;28;20546;-70
2023/03/25 02:34:11;;;;;;;0.63;0.63;;;9.00;99.90;;;;;;5035354;28;20508;-68
2023/03/25 02:36:55;;;;;;;0.70;0.60;;;8.90;99.90;;;;;;5024380;28;20453;-69
2023/03/25 02:39:46;;;;;;;0.70;0.60;;;8.90;99.90;;;;;;5028338;28;20445;-70
2023/03/25 02:42:24;;;;;;;1.13;0.60;;;8.90;99.90;;;;;;5047804;28;20574;-70
2023/03/25 02:45:06;;;;;;;0.47;0.43;;;8.90;99.90;;;;;;5014657;28;20477;-69
2023/03/25 02:47:41;;;;;;;1.07;0.97;;;8.90;99.90;;;;;;5036862;28;20451;-69
2023/03/25 02:50:18;;;;;;;3.17;1.03;;;8.90;99.90;;;;;;5046542;28;20480;-68
2023/03/25 02:52:49;;;;;;;1.03;0.57;;;9.00;99.90;;;;;;5031443;28;20522;-70
2023/03/25 02:55:19;;;;;;;0.70;0.47;;;8.90;99.90;;;;;;5015084;28;20543;-69
2023/03/25 02:57:48;;;;;;;1.43;0.60;;;8.90;99.90;;;;;;5012662;28;20528;-69
2023/03/25 03:00:17;;;;;;;0.40;0.40;;;9.00;99.90;;;;;;5014852;28;20469;-70
2023/03/25 03:02:58;;;;;;;0.60;0.60;;;9.10;99.90;;;;;;5013676;28;20480;-70
2023/03/25 03:05:27;;;;;;;0.90;0.90;;;9.00;99.90;;;;;;5042543;28;20506;-70
2023/03/25 03:08:17;;;;;;;3.70;0.70;;;9.00;99.90;;;;;;5026497;28;20540;-69
2023/03/25 03:11:06;;;;;;;2.30;0.70;;;9.00;99.90;;;;;;5013974;28;20446;-69
2023/03/25 03:13:56;;;;;;;1.80;0.70;;;9.10;99.90;;;;;;5042115;28;20454;-70
2023/03/25 03:16:48;;;;;;;0.90;0.70;;;9.00;99.90;;;;;;5043163;28;20991;-70
2023/03/25 03:19:23;;;;;;;2.10;0.80;;;9.20;99.90;;;;;;5043084;28;20476;-70
2023/03/25 03:22:13;;;;;;;0.87;0.60;;;9.30;99.90;;;;;;5029776;28;20451;-71
2023/03/25 03:24:50;;;;;;;2.50;0.90;;;9.20;99.90;;;;;;5028557;28;20449;-70
2023/03/25 03:27:55;;;;;;;1.60;1.00;;;9.20;99.90;;;;;;5061660;28;20524;-70
2023/03/25 03:30:38;;;;;;;1.10;1.00;;;9.20;99.90;;;;;;5034170;28;20443;-70
2023/03/25 03:33:31;;;;;;;2.40;0.90;;;9.00;99.90;;;;;;5047937;28;20896;-70
2023/03/25 03:36:05;;;;;;;1.83;1.10;;;9.10;99.90;;;;;;5032418;28;20500;-70
2023/03/25 03:38:39;;;;;;;4.10;1.53;;;8.90;99.90;;;;;;5031650;28;20470;-71
2023/03/25 03:41:09;;;;;;;0.87;0.87;;;8.70;99.90;;;;;;5048453;28;20461;-70
2023/03/25 03:43:47;;;;;;;0.90;0.90;;;8.70;99.90;;;;;;5023254;28;20457;-70
2023/03/25 03:46:45;;;;;;;1.80;1.20;;;8.60;99.90;;;;;;5039157;28;20454;-70
2023/03/25 03:49:16;;;;;;;2.00;0.80;;;8.60;99.90;;;;;;5029824;28;20437;-70
2023/03/25 03:51:55;;;;;;;1.60;1.10;;;8.70;99.90;;;;;;5018306;28;20462;-70
2023/03/25 03:54:25;;;;;;;1.10;1.00;;;8.50;99.90;;;;;;5025184;28;20515;-70
2023/03/25 03:56:57;;;;;;;2.50;1.13;;;8.50;99.90;;;;;;5031483;28;20962;-70
2023/03/25 03:59:57;;;;;;;2.50;1.27;;;8.50;99.90;;;;;;5011789;28;20446;-69
2023/03/25 04:02:33;;;;;;;1.07;1.07;;;8.40;99.90;;;;;;5003661;28;20968;-69
2023/03/25 04:04:59;;;;;;;1.57;0.93;;;8.40;99.90;;;;;;5018583;28;20483;-68
2023/03/25 04:07:57;;;;;;;0.97;0.90;;;8.50;99.90;;;;;;5016763;28;20442;-70
2023/03/25 04:10:39;;;;;;;2.93;1.00;;;8.40;99.90;;;;;;5040570;28;20215;-70
2023/03/25 04:13:09;;;;;;;2.73;1.10;;;8.40;99.90;;;;;;5028164;28;20495;-70
2023/03/25 04:15:35;;;;;;;3.57;0.73;;;8.40;99.90;;;;;;5029066;28;20443;-70
2023/03/25 04:18:02;;;;;;;0.83;0.70;;;8.40;99.90;;;;;;5045736;28;20487;-69
2023/03/25 04:20:33;;;;;;;1.53;1.00;;;8.40;99.90;;;;;;5042378;28;20450;-70
2023/03/25 04:22:59;;;;;;;1.10;0.90;;;8.50;99.90;;;;;;5030332;28;20462;-70
2023/03/25 04:25:25;;;;;;;1.43;0.53;;;8.40;99.90;;;;;;5037206;28;20469;-69
2023/03/25 04:27:57;;;;;;;1.80;0.70;;;8.30;99.90;;;;;;5025485;28;20457;-70
2023/03/25 04:30:25;;;;;;;1.73;0.80;;;8.30;99.90;;;;;;5028934;28;20636;-70
2023/03/25 04:32:51;;;;;;;7.23;0.83;;;8.30;99.90;;;;;;5050828;28;20474;-69
2023/03/25 04:35:18;;;;;;;1.10;1.00;;;8.40;99.90;;;;;;5036403;28;20902;-69
2023/03/25 04:37:45;;;;;;;0.70;0.70;;;8.40;99.90;;;;;;5052324;28;20549;-70
2023/03/25 04:40:15;;;;;;;0.83;0.70;;;8.40;99.90;;;;;;5033398;28;20521;-70
2023/03/25 04:42:41;;;;;;;1.27;0.80;;;8.40;99.90;;;;;;5053727;28;20442;-69
2023/03/25 04:45:12;;;;;;;0.70;0.70;;;8.40;99.90;;;;;;5051300;28;20521;-69
2023/03/25 04:47:43;;;;;;;1.27;0.87;;;8.40;99.90;;;;;;5016179;28;20595;-69
2023/03/25 04:50:30;;;;;;;0.60;0.57;;;8.40;99.90;;;;;;5023282;28;20459;-69
2023/03/25 04:52:57;;;;;;;1.27;0.90;;;8.50;99.90;;;;;;4994021;28;20451;-69
2023/03/25 04:55:24;;;;;;;1.13;0.93;;;8.60;99.90;;;;;;5048110;28;20489;-69
2023/03/25 04:57:52;;;;;;;0.70;0.67;;;8.50;99.90;;;;;;5028909;28;20565;-70
2023/03/25 05:00:21;;;;;;;1.17;0.93;;;8.50;99.90;;;;;;5027041;28;20454;-70
2023/03/25 05:02:52;;;;;;;0.70;0.57;;;8.60;99.90;;;;;;5031497;28;20480;-68
2023/03/25 05:05:20;;;;;;;1.83;1.60;;;8.80;99.90;;;;;;5025489;28;20534;-70
2023/03/25 05:07:48;;;;;;;2.97;1.50;;;8.60;99.90;;;;;;5029425;28;20469;-70
2023/03/25 05:10:20;;;;;;;5.20;1.23;;;8.60;99.90;;;;;;5026473;28;20473;-70
2023/03/25 05:12:46;;;;;;;5.03;1.60;;;8.70;99.90;;;;;;5036878;28;20457;-70
2023/03/25 05:15:12;;;;;;;1.53;1.20;;;8.70;99.90;;;;;;5033393;28;20474;-69
2023/03/25 05:17:38;;;;;;;2.30;1.13;;;8.70;99.90;;;;;;5031264;28;20258;-70
2023/03/25 05:20:07;;;;;;;1.27;1.13;;;8.70;99.90;;;;;;5028787;28;20512;-69
2023/03/25 05:22:32;;;;;;;2.20;1.23;;;8.60;99.90;;;;;;5043842;28;20234;-69
2023/03/25 05:25:01;;;;;;;1.20;1.00;;;8.50;99.90;;;;;;5050151;28;20978;-71
2023/03/25 05:27:29;;;;;;;0.90;0.90;;;8.50;99.90;;;;;;5031082;28;20269;-69
2023/03/25 05:29:57;;;;;;;1.90;1.40;;;8.40;99.90;;;;;;5030857;28;20835;-70
2023/03/25 05:32:24;;;;;;;5.83;1.23;;;8.50;99.90;;;;;;5017619;28;20532;-70
2023/03/25 05:34:52;;;;;;;1.00;0.80;;;8.40;99.90;;;;;;5041963;28;20472;-69
2023/03/25 05:37:18;;;;;;;2.60;1.30;;;8.40;99.90;;;;;;5029938;28;20470;-70
2023/03/25 05:39:44;;;;;;;0.70;0.70;;;8.30;99.90;;;;;;5029425;28;20446;-68
2023/03/25 05:42:10;;;;;;;1.03;0.90;;;8.20;99.90;;;;;;5031694;28;20443;-68
2023/03/25 05:44:37;;;;;;;1.27;0.53;;;8.30;99.90;;;;;;5015884;28;20773;-70
2023/03/25 05:47:03;;;;;;;0.80;0.50;;;8.30;99.90;;;;;;5028696;28;20243;-67
2023/03/25 05:49:29;;;;;;;0.83;0.67;;;8.30;99.90;;;;;;5014468;28;20494;-71
2023/03/25 05:51:54;;;;;;;2.83;1.17;;;8.40;99.90;;;;;;5046119;28;20212;-69
2023/03/25 05:54:23;;;;;;;0.60;0.60;;;8.30;99.90;;;;;;5032690;28;20214;-70
2023/03/25 05:56:51;;;;;;;0.53;0.53;;;8.40;99.90;;;;;;5011201;28;20223;-70
2023/03/25 05:59:19;;;;;;;3.27;0.90;;;8.40;99.90;;;;;;5046767;28;21016;-70
2023/03/25 06:01:45;;;;;;;0.93;0.80;;;8.40;99.90;;;;;;5022174;28;20466;-70
2023/03/25 06:04:12;;;;;;;2.10;1.10;;;8.50;99.90;;;;;;5050101;28;20510;-70
2023/03/25 06:06:39;;;;;;;0.83;0.77;;;8.60;99.90;;;;;;5013000;28;20231;-70
2023/03/25 06:09:06;;;;;;;2.70;1.10;;;8.70;99.90;;;;;;5046290;28;20997;-70
2023/03/25 06:11:36;;;;;;;2.43;1.27;;;8.70;99.90;;;;;;5031716;28;20983;-69
2023/03/25 06:14:04;;;;;;;2.07;1.10;;;8.70;99.90;;;;;;5026737;28;20467;-69
2023/03/25 06:16:31;;;;;;;1.90;1.27;;;8.60;99.90;;;;;;5010902;28;20470;-70
2023/03/25 06:19:00;;;;;;;0.93;0.90;;;8.60;99.90;;;;;;5034377;28;20533;-70
2023/03/25 06:21:32;;;;;;;5.33;1.20;;;8.70;99.90;;;;;;5030659;28;20482;-70
2023/03/25 06:24:00;;;;;;;1.90;1.13;;;8.80;99.90;;;;;;5047371;28;20472;-70
2023/03/25 06:26:26;;;;;;;2.13;1.10;;;8.90;99.90;;;;;;5044090;28;20510;-69
2023/03/25 06:28:52;;;;;;;1.17;0.83;;;8.70;99.90;;;;;;5010950;28;20470;-70
2023/03/25 06:31:25;;;;;;;0.70;0.70;;;8.80;99.90;;;;;;5030569;28;20457;-69
2023/03/25 06:33:51;;;;;;;2.83;1.17;;;8.70;99.90;;;;;;5025888;28;20220;-68
2023/03/25 06:36:19;;;;;;;3.80;1.03;;;8.70;99.90;;;;;;5007920;28;20528;-69
2023/03/25 06:38:49;;;;;;;1.03;0.60;;;8.70;99.90;;;;;;5030491;28;20465;-70
2023/03/25 06:41:19;;;;;;;2.00;0.80;;;8.70;99.90;;;;;;5030264;28;20455;-70
2023/03/25 06:43:47;;;;;;;0.80;0.80;;;8.70;99.90;;;;;;5025687;28;20597;-69
2023/03/25 06:46:32;;;;;;;1.40;0.90;;;8.80;99.90;;;;;;5037202;28;20526;-70
2023/03/25 06:49:14;;;;;;;2.27;0.90;;;8.90;99.90;;;;;;5002678;28;20596;-68
2023/03/25 06:51:39;;;;;;;2.47;0.70;;;8.70;99.90;;;;;;5013572;28;20473;-70
2023/03/25 06:54:05;;;;;;;2.77;0.77;;;8.80;99.90;;;;;;5027631;28;20462;-69
2023/03/25 06:56:31;;;;;;;2.63;1.10;;;8.90;99.90;;;;;;5023959;28;20223;-70
2023/03/25 06:58:56;;;;;;;1.67;0.90;;;8.90;99.90;;;;;;5029903;28;20306;-70
2023/03/25 07:01:22;;;;;;;2.70;1.07;;;8.80;99.90;;;;;;5045987;28;20253;-69
2023/03/25 07:03:48;;;;;;;1.23;0.90;;;9.00;99.90;;;;;;5025180;28;20594;-69
2023/03/25 07:06:17;;;;;;;1.60;0.83;;;9.00;99.90;;;;;;5046922;28;20243;-70
2023/03/25 07:08:43;;;;;;;1.03;0.83;;;8.90;99.90;;;;;;5029294;28;20224;-70
2023/03/25 07:11:11;;;;;;;2.73;1.53;;;9.00;99.90;;;;;;5030663;28;20466;-69
2023/03/25 07:13:36;;;;;;;2.17;1.00;;;9.00;99.90;;;;;;5041933;28;20495;-70
2023/03/25 07:16:02;;;;;;;4.03;1.60;;;9.10;99.90;;;;;;5040819;28;20615;-70
2023/03/25 07:18:28;;;;;;;1.90;1.20;;;9.10;99.90;;;;;;5007919;28;20220;-70
2023/03/25 07:20:54;;;;;;;11.83;1.40;;;9.10;99.90;;;;;;5039126;28;20715;-68
2023/03/25 07:23:20;;;;;;;2.17;1.23;;;9.10;99.90;;;;;;5025534;28;20700;-69
2023/03/25 07:25:45;;;;;;;1.53;1.13;;;9.10;99.90;;;;;;5045904;28;20227;-69
2023/03/25 07:28:11;;;;;;;5.70;1.70;;;9.10;99.90;;;;;;5021224;28;20220;-70
2023/03/25 07:30:42;;;;;;;4.10;1.63;;;9.20;99.90;;;;;;5019578;28;20224;-69
2023/03/25 07:33:08;;;;;;;6.23;1.53;;;9.30;99.90;;;;;;5013283;28;20468;-69
2023/03/25 07:35:34;;;;;;;2.40;1.50;;;9.30;99.90;;;;;;5041731;28;20274;-71
2023/03/25 07:37:59;;;;;;;1.70;1.10;;;9.30;99.90;;;;;;5025926;28;20277;-69
2023/03/25 07:40:25;;;;;;;12.83;1.53;;;9.40;99.90;;;;;;5011843;28;20788;-70
2023/03/25 07:42:51;;;;;;;4.67;1.63;;;9.40;99.90;;;;;;5026733;28;20265;-70
2023/03/25 07:45:34;;;;;;;3.13;1.23;;;9.50;99.90;;;;;;5013677;28;20216;-70
2023/03/25 07:48:00;;;;;;;2.53;1.23;;;9.60;99.90;;;;;;5028433;28;20493;-70
2023/03/25 07:50:26;;;;;;;2.30;1.10;;;9.70;99.90;;;;;;5045996;28;20447;-69
2023/03/25 07:52:53;;;;;;;6.57;1.57;;;9.70;99.90;;;;;;5028493;28;20466;-70
2023/03/25 07:55:18;;;;;;;3.97;1.30;;;9.70;99.90;;;;;;5030144;28;20223;-70
2023/03/25 07:57:44;;;;;;;2.37;1.40;;;9.80;99.90;;;;;;5027980;28;20477;-70
2023/03/25 08:00:10;;;;;;;6.97;1.77;;;9.90;99.90;;;;;;5048400;28;20235;-70
2023/03/25 08:02:40;;;;;;;5.97;1.50;;;10.00;99.90;;;;;;5048616;28;20223;-71
2023/03/25 08:05:06;;;;;;;1.90;1.30;;;10.10;99.90;;;;;;5026340;28;21175;-70
2023/03/25 08:07:32;;;;;;;3.90;1.60;;;10.20;99.90;;;;;;5010482;28;20477;-70
2023/03/25 08:09:58;;;;;;;3.53;1.70;;;10.30;99.90;;;;;;5012479;28;20464;-69
2023/03/25 08:12:24;;;;;;;11.77;1.83;;;10.40;99.90;;;;;;5042522;28;20216;-69
2023/03/25 08:14:49;;;;;;;10.83;2.70;;;10.50;99.90;;;;;;5039817;28;20769;-70
2023/03/25 08:17:16;;;;;;;5.53;1.87;;;10.50;99.90;;;;;;5037023;28;20216;-70
2023/03/25 08:19:41;;;;;;;10.80;1.90;;;10.60;99.90;;;;;;5024960;28;20224;-70
2023/03/25 08:22:07;;;;;;;5.33;1.67;;;10.50;99.90;;;;;;5025600;28;20442;-70
2023/03/25 08:24:33;;;;;;;4.07;1.33;;;10.50;99.90;;;;;;5038512;28;20576;-70
2023/03/25 08:26:59;;;;;;;5.60;1.50;;;10.50;99.90;;;;;;5036752;28;20213;-69
2023/03/25 08:29:26;;;;;;;1.77;1.67;;;10.70;99.90;;;;;;5028610;28;20226;-70
2023/03/25 08:31:52;;;;;;;2.13;1.30;;;10.80;99.90;;;;;;5009902;28;20448;-70
2023/03/25 08:34:21;;;;;;;6.33;2.17;;;10.80;99.90;;;;;;5024110;28;20459;-70
2023/03/25 08:36:47;;;;;;;14.10;1.37;;;10.80;99.90;;;;;;5028380;28;20457;-70
2023/03/25 08:39:16;;;;;;;2.17;1.10;;;10.80;99.90;;;;;;5028061;28;20806;-68
2023/03/25 08:41:42;;;;;;;2.10;1.67;;;10.80;99.90;;;;;;5025320;28;20470;-68
2023/03/25 08:44:09;;;;;;;2.53;1.50;;;10.80;99.90;;;;;;5025454;28;20463;-70
2023/03/25 08:46:35;;;;;;;1.50;1.30;;;10.80;99.90;;;;;;5045376;28;20834;-68
2023/03/25 08:49:01;;;;;;;2.90;1.40;;;10.80;99.90;;;;;;5023721;28;20537;-68
2023/03/25 08:51:27;;;;;;;2.60;1.30;;;10.80;99.90;;;;;;5020871;28;20470;-69
2023/03/25 08:53:53;;;;;;;3.67;1.90;;;10.80;99.90;;;;;;5046857;28;20456;-70
2023/03/25 08:56:19;;;;;;;7.23;2.07;;;10.80;99.90;;;;;;5027426;28;20231;-69
2023/03/25 08:58:44;;;;;;;2.90;1.60;;;10.80;99.90;;;;;;5037223;28;20221;-69
2023/03/25 09:01:10;;;;;;;4.30;1.60;;;10.80;99.90;;;;;;5018833;28;20880;-68
2023/03/25 09:03:41;;;;;;;3.00;1.70;;;10.80;99.90;;;;;;5043261;28;20219;-70
2023/03/25 09:06:08;;;;;;;4.40;1.93;;;10.80;99.90;;;;;;5024696;28;20452;-71
2023/03/25 09:08:35;;;;;;;1.77;1.67;;;10.80;99.90;;;;;;5038599;28;21020;-69
2023/03/25 09:11:01;;;;;;;5.37;2.07;;;10.80;99.90;;;;;;5036540;28;20496;-68
2023/03/25 09:13:27;;;;;;;6.47;2.27;;;10.80;99.90;;;;;;5022811;28;20490;-71
2023/03/25 09:15:53;;;;;;;7.60;1.90;;;10.90;99.90;;;;;;5026147;28;20221;-71
2023/03/25 09:18:18;;;;;;;1.50;1.40;;;10.90;99.90;;;;;;5018599;28;20225;-70
2023/03/25 09:20:47;;;;;;;5.40;2.10;;;10.90;99.90;;;;;;5028200;28;20735;-70
2023/03/25 09:23:14;;;;;;;7.80;1.60;;;10.80;99.90;;;;;;5016835;28;20225;-69
2023/03/25 09:25:39;;;;;;;3.13;1.67;;;10.80;99.90;;;;;;5032643;28;20481;-68
2023/03/25 09:28:05;;;;;;;4.20;2.07;;;10.60;99.90;;;;;;5002750;28;20465;-69
2023/03/25 09:30:31;;;;;;;1.47;1.37;;;10.50;99.90;;;;;;5034060;28;20271;-70
2023/03/25 09:32:57;;;;;;;3.43;1.60;;;10.50;99.90;;;;;;5010192;28;20228;-68
2023/03/25 09:35:22;;;;;;;3.03;1.57;;;10.50;99.90;;;;;;5050638;28;20219;-70
2023/03/25 09:37:48;;;;;;;2.20;1.50;;;10.50;99.90;;;;;;5027072;28;20232;-71
2023/03/25 09:40:17;;;;;;;2.03;1.33;;;10.50;99.90;;;;;;5014865;28;20210;-70
2023/03/25 09:43:04;;;;;;;1.53;1.40;;;10.50;99.90;;;;;;5011860;28;20214;-69
2023/03/25 09:45:33;;;;;;;1.40;1.30;;;10.60;99.90;;;;;;5022223;28;20466;-69
2023/03/25 09:48:05;;;;;;;2.10;0.80;;;10.60;99.90;;;;;;5007915;28;20459;-71
2023/03/25 09:50:34;;;;;;;1.00;0.77;;;10.60;99.90;;;;;;5032534;28;20467;-69
2023/03/25 09:53:10;;;;;;;1.33;0.83;;;10.50;99.90;;;;;;5028658;28;20470;-70
2023/03/25 09:55:42;;;;;;;1.47;0.70;;;10.30;99.90;;;;;;5016633;28;20474;-69
2023/03/25 09:58:21;;;;;;;1.37;0.60;;;10.30;99.90;;;;;;5030168;28;20523;-70
2023/03/25 10:00:54;;;;;;;0.87;0.53;;;10.20;99.90;;;;;;5017234;28;20474;-69
2023/03/25 10:03:31;;;;;;;1.73;0.60;;;10.20;99.90;;;;;;5044442;28;20505;-71
2023/03/25 10:06:18;;;;;;;0.93;0.50;;;10.10;99.90;;;;;;5045905;28;20454;-69
2023/03/25 10:08:54;;;;;;;1.40;0.60;;;9.90;99.90;;;;;;5011892;28;20510;-70
2023/03/25 10:11:46;;;;;;;2.40;0.50;;;9.70;99.90;;;;;;5024636;28;20466;-68
2023/03/25 10:14:37;;;;;;;2.47;1.50;;;9.80;99.90;;;;;;5040905;28;20462;-67
2023/03/25 10:17:16;;;;;;;2.50;1.30;;;9.80;99.90;;;;;;5023816;28;20527;-68
2023/03/25 10:19:50;;;;;;;1.50;1.37;;;10.00;99.90;;;;;;5029736;28;20451;-67
2023/03/25 10:22:38;;;;;;;2.00;1.00;;;10.20;99.90;;;;;;5031975;28;20455;-67
2023/03/25 10:25:12;;;;;;;0.50;0.50;;;10.20;99.90;;;;;;5020907;28;20451;-66
2023/03/25 10:27:50;;;;;;;4.00;0.90;;;10.20;99.90;;;;;;5043194;28;20823;-70
2023/03/25 10:30:34;;;;;;;0.93;0.70;;;10.20;99.90;;;;;;5025469;28;20457;-69
2023/03/25 10:33:04;;;;;;;0.50;0.50;;;10.30;99.90;;;;;;5012573;28;20459;-70
2023/03/25 10:35:33;;;;;;;5.73;2.43;;;10.60;99.90;;;;;;5048030;28;20462;-70
2023/03/25 10:38:06;;;;;;;1.40;1.40;;;10.80;99.90;;;;;;5045717;28;20519;-70
2023/03/25 10:40:43;;;;;;;1.80;1.70;;;10.90;99.90;;;;;;5051731;28;20903;-71
2023/03/25 10:43:35;;;;;;;8.17;1.53;;;11.10;99.90;;;;;;5028789;28;20439;-71
2023/03/25 10:46:19;;;;;;;1.27;0.90;;;11.30;99.90;;;;;;5046882;28;20574;-70
2023/03/25 10:48:45;;;;;;;3.07;1.03;;;11.40;99.90;;;;;;5014509;28;20455;-70
2023/03/25 10:51:18;;;;;;;2.20;1.37;;;11.60;99.90;;;;;;5031632;28;21015;-70
2023/03/25 10:53:51;;;;;;;1.93;1.30;;;11.80;99.90;;;;;;5028763;28;20486;-70
2023/03/25 10:56:44;;;;;;;2.77;1.17;;;11.90;99.90;;;;;;5014819;28;20462;-72
2023/03/25 10:59:28;;;;;;;2.00;1.70;;;12.10;99.90;;;;;;5041688;28;20469;-69
2023/03/25 11:01:56;;;;;;;4.73;2.00;;;12.30;99.90;;;;;;5028060;28;20979;-70
2023/03/25 11:04:34;;;;;;;2.07;1.03;;;12.20;99.90;;;;;;5001328;28;20462;-71
2023/03/25 11:07:04;;;;;;;1.23;1.13;;;12.30;99.90;;;;;;5039773;28;20476;-71
2023/03/25 11:09:31;;;;;;;1.13;1.00;;;12.70;99.90;;;;;;5028832;28;20457;-71
2023/03/25 11:12:00;;;;;;;2.37;1.30;;;12.80;99.90;;;;;;5028788;28;20542;-71
2023/03/25 11:14:28;;;;;;;5.63;3.07;;;13.00;99.90;;;;;;5013769;28;20474;-71
2023/03/25 11:16:59;;;;;;;10.30;4.73;;;13.10;99.90;;;;;;5047931;28;20494;-69
2023/03/25 11:19:52;;;;;;;7.20;4.70;;;13.00;99.90;;;;;;5026098;28;20469;-70
2023/03/25 11:22:21;;;;;;;2.20;1.90;;;13.00;99.90;;;;;;5026609;28;21012;-71
2023/03/25 11:24:49;;;;;;;1.90;0.97;;;13.00;99.90;;;;;;5025416;28;20982;-70
2023/03/25 11:27:22;;;;;;;1.33;1.20;;;13.10;99.90;;;;;;5016822;28;20457;-71
2023/03/25 11:30:13;;;;;;;1.67;0.70;;;13.40;99.90;;;;;;5024634;28;20468;-71
2023/03/25 11:32:39;;;;;;;2.50;0.80;;;13.50;99.90;;;;;;5011166;28;20871;-70
2023/03/25 11:35:29;;;;;;;2.50;1.07;;;13.40;99.90;;;;;;5036691;28;20450;-70
2023/03/25 11:38:01;;;;;;;3.63;1.10;;;13.40;99.90;;;;;;5008047;28;20482;-70
2023/03/25 11:40:29;;;;;;;0.80;0.70;;;13.40;99.90;;;;;;4992502;28;20687;-70
2023/03/25 11:42:57;;;;;;;1.43;0.80;;;13.40;99.90;;;;;;5032390;28;20886;-71
2023/03/25 11:45:37;;;;;;;1.30;0.83;;;13.50;99.90;;;;;;5002387;28;21070;-71
2023/03/25 11:48:15;;;;;;;0.70;0.70;;;13.70;99.90;;;;;;5017589;28;20982;-71
2023/03/25 11:50:54;;;;;;;3.50;1.20;;;14.00;99.90;;;;;;5022703;28;20462;-72
2023/03/25 11:53:24;;;;;;;0.93;0.90;;;14.10;99.90;;;;;;5019524;28;20600;-71
2023/03/25 11:55:56;;;;;;;2.73;1.17;;;14.10;99.90;;;;;;5036979;28;20474;-71
2023/03/25 11:58:27;;;;;;;2.97;0.80;;;14.10;99.90;;;;;;5017544;28;20536;-70
2023/03/25 12:01:04;;;;;;;1.53;1.10;;;14.20;99.90;;;;;;5029944;28;20473;-72
2023/03/25 12:03:33;;;;;;;3.63;0.90;;;14.00;99.90;;;;;;5023006;28;20468;-71
2023/03/25 12:06:15;;;;;;;2.50;0.97;;;13.90;99.90;;;;;;5033830;28;20492;-70
2023/03/25 12:08:52;;;;;;;3.83;0.80;;;13.70;99.90;;;;;;5019350;28;20473;-69
2023/03/25 12:11:37;;;;;;;0.93;0.80;;;13.50;99.90;;;;;;4986451;28;20609;-71
2023/03/25 12:14:21;;;;;;;10.73;6.70;;;13.60;99.90;;;;;;5008049;28;20476;-72
2023/03/25 12:16:59;;;;;;;7.87;5.60;;;13.90;99.90;;;;;;5022802;28;20473;-71
2023/03/25 12:20:10;;;;;;;2.80;1.63;;;14.10;99.90;;;;;;5035656;28;20573;-70
2023/03/25 12:23:13;;;;;;;2.70;1.00;;;14.10;99.90;;;;;;5015823;28;20482;-71
2023/03/25 12:25:48;;;;;;;2.33;1.80;;;14.00;99.90;;;;;;5014949;28;20942;-71
2023/03/25 12:28:43;;;;;;;3.33;1.60;;;13.80;99.90;;;;;;5020243;28;20472;-71
2023/03/25 12:31:12;;;;;;;1.90;0.73;;;13.60;99.90;;;;;;5036145;28;20978;-71
2023/03/25 12:33:55;;;;;;;1.30;0.57;;;13.10;99.90;;;;;;5017586;28;20476;-70
2023/03/25 12:36:27;;;;;;;1.53;0.67;;;12.60;99.90;;;;;;5018067;28;20468;-71
2023/03/25 12:39:08;;;;;;;0.50;0.50;;;12.20;99.90;;;;;;5018729;28;20504;-72
2023/03/25 12:41:41;;;;;;;1.87;0.60;;;12.10;99.90;;;;;;5006668;28;20548;-71
2023/03/25 12:44:40;;;;;;;0.70;0.70;;;12.20;99.90;;;;;;5020220;28;20470;-71
2023/03/25 12:47:21;;;;;;;0.57;0.53;;;12.50;99.90;;;;;;5020198;28;20456;-71
2023/03/25 12:50:10;;;;;;;0.80;0.80;;;12.70;99.90;;;;;;5024981;28;20450;-71
2023/03/25 12:52:40;;;;;;;1.17;1.07;;;13.00;99.90;;;;;;5021328;28;20459;-71
2023/03/25 12:55:20;;;;;;;2.80;1.20;;;13.10;99.90;;;;;;5032053;28;20474;-71
2023/03/25 12:58:11;;;;;;;2.57;1.07;;;13.30;99.90;;;;;;5044746;28;20478;-71
2023/03/25 13:00:59;;;;;;;0.60;0.60;;;13.50;99.90;;;;;;5026290;28;20504;-71
2023/03/25 13:03:39;;;;;;;0.60;0.60;;;13.50;99.90;;;;;;5036901;28;20448;-71
2023/03/25 13:06:29;;;;;;;0.90;0.70;;;13.70;99.90;;;;;;5022900;28;20474;-67
2023/03/25 13:09:15;;;;;;;2.40;1.37;;;13.80;99.90;;;;;;5038661;28;20455;-69
2023/03/25 13:11:59;;;;;;;0.70;0.60;;;13.70;99.90;;;;;;5025108;28;20459;-71
2023/03/25 13:14:36;;;;;;;5.23;1.20;;;13.50;99.90;;;;;;5044279;28;20573;-72
2023/03/25 13:17:09;;;;;;;4.47;1.73;;;13.60;99.90;;;;;;5002138;28;20516;-69
2023/03/25 13:19:39;;;;;;;2.67;2.47;;;13.60;99.90;;;;;;5026906;28;20478;-71